createdAt,value
2023-01-10T00:00:29.893Z,99.99
2023-01-10T00:01:29.851Z,99.99
2023-01-10T00:02:29.900Z,99.99
2023-01-10T00:03:29.888Z,99.99
2023-01-10T00:04:30.011Z,99.99
2023-01-10T00:05:29.941Z,99.99
2023-01-10T00:06:29.949Z,99.99
2023-01-10T00:07:29.966Z,99.99
2023-01-10T00:08:29.998Z,99.99
2023-01-10T00:09:30.014Z,99.99
2023-01-10T00:10:30.034Z,99.99
2023-01-10T00:11:30.049Z,99.99
2023-01-10T00:12:30.081Z,99.99
2023-01-10T00:13:30.088Z,99.99
2023-01-10T00:14:30.124Z,99.99
2023-01-10T00:15:30.136Z,99.99
2023-01-10T00:16:30.152Z,99.99
2023-01-10T00:17:30.167Z,99.99
2023-01-10T00:18:30.195Z,99.99
2023-01-10T00:19:30.211Z,99.99
2023-01-10T00:20:30.245Z,99.99
2023-01-10T00:21:30.253Z,99.99
2023-01-10T00:22:30.271Z,99.99
2023-01-10T00:23:30.292Z,99.99
2023-01-10T00:24:30.310Z,99.99
2023-01-10T00:25:30.327Z,99.99
2023-01-10T00:26:30.351Z,99.99
2023-01-10T00:27:30.371Z,99.99
2023-01-10T00:28:30.390Z,99.99
2023-01-10T00:29:30.413Z,99.99
2023-01-10T00:30:30.433Z,99.99
2023-01-10T00:31:30.506Z,99.99
2023-01-10T00:32:30.472Z,99.99
2023-01-10T00:33:30.494Z,99.99
2023-01-10T00:34:30.512Z,99.99
2023-01-10T00:35:30.533Z,99.99
2023-01-10T00:36:30.571Z,99.99
2023-01-10T00:37:30.578Z,99.99
2023-01-10T00:38:30.601Z,99.99
2023-01-10T00:39:30.617Z,99.99
2023-01-10T00:40:30.632Z,99.99
2023-01-10T00:41:30.653Z,99.99
2023-01-10T00:42:30.687Z,99.99
2023-01-10T00:43:30.698Z,99.99
2023-01-10T00:44:30.714Z,99.99
2023-01-10T00:45:30.765Z,99.99
2023-01-10T00:46:30.803Z,99.99
2023-01-10T00:47:30.774Z,99.99
2023-01-10T00:48:30.803Z,99.99
2023-01-10T00:49:30.817Z,99.99
2023-01-10T00:50:30.835Z,99.99
2023-01-10T00:51:30.860Z,99.99
2023-01-10T00:52:30.875Z,99.99
2023-01-10T00:53:30.889Z,99.99
2023-01-10T00:54:30.913Z,99.99
2023-01-10T00:55:30.936Z,99.99
2023-01-10T00:56:30.962Z,99.99
2023-01-10T00:57:30.970Z,99.99
2023-01-10T00:58:30.996Z,99.99
2023-01-10T00:59:31.019Z,99.99
2023-01-10T01:00:31.040Z,99.99
2023-01-10T01:01:31.147Z,99.99
2023-01-10T01:02:31.143Z,99.99
2023-01-10T01:03:31.094Z,99.99
2023-01-10T01:04:31.116Z,99.99
2023-01-10T01:05:31.135Z,99.99
2023-01-10T01:06:31.157Z,99.99
2023-01-10T01:07:31.180Z,99.99
2023-01-10T01:08:31.197Z,99.99
2023-01-10T01:09:31.214Z,99.99
2023-01-10T01:10:31.243Z,99.99
2023-01-10T01:11:31.259Z,99.99
2023-01-10T01:12:31.277Z,99.99
2023-01-10T01:13:31.307Z,99.99
2023-01-10T01:14:31.315Z,99.99
2023-01-10T01:15:31.410Z,99.99
2023-01-10T01:16:31.357Z,99.99
2023-01-10T01:17:31.379Z,99.99
2023-01-10T01:18:31.400Z,99.99
2023-01-10T01:19:31.422Z,99.99
2023-01-10T01:20:31.436Z,99.99
2023-01-10T01:21:31.488Z,99.99
2023-01-10T01:22:31.476Z,99.99
2023-01-10T01:23:31.497Z,99.99
2023-01-10T01:24:31.522Z,99.99
2023-01-10T01:25:31.535Z,99.99
2023-01-10T01:26:31.560Z,99.99
2023-01-10T01:27:31.578Z,99.99
2023-01-10T01:28:31.596Z,99.99
2023-01-10T01:29:42.415Z,99.99
2023-01-10T01:30:31.632Z,99.99
2023-01-10T01:31:31.693Z,99.99
2023-01-10T01:32:31.676Z,99.99
2023-01-10T01:33:31.696Z,99.99
2023-01-10T01:34:31.715Z,99.99
2023-01-10T01:35:31.734Z,99.99
2023-01-10T01:36:31.766Z,99.99
2023-01-10T01:37:31.779Z,99.99
2023-01-10T01:38:31.796Z,99.99
2023-01-10T01:39:31.815Z,99.99
2023-01-10T01:40:31.835Z,99.99
2023-01-10T01:41:31.853Z,99.99
2023-01-10T01:42:31.875Z,99.99
2023-01-10T01:43:31.905Z,99.99
2023-01-10T01:44:31.916Z,99.99
2023-01-10T01:45:31.952Z,99.99
2023-01-10T01:46:31.996Z,99.99
2023-01-10T01:47:31.978Z,99.99
2023-01-10T01:48:31.992Z,99.99
2023-01-10T01:49:32.021Z,99.99
2023-01-10T01:50:32.035Z,99.99
2023-01-10T01:51:32.080Z,99.99
2023-01-10T01:52:32.074Z,99.99
2023-01-10T01:53:32.096Z,99.99
2023-01-10T01:54:32.113Z,99.99
2023-01-10T01:55:32.133Z,99.99
2023-01-10T01:56:32.151Z,99.99
2023-01-10T01:57:32.178Z,99.99
2023-01-10T01:58:32.196Z,99.99
2023-01-10T01:59:32.210Z,99.99
2023-01-10T02:00:32.231Z,99.99
2023-01-10T02:01:32.343Z,99.99
2023-01-10T02:02:32.315Z,99.99
2023-01-10T02:03:32.328Z,99.99
2023-01-10T02:04:32.314Z,99.99
2023-01-10T02:05:32.341Z,99.99
2023-01-10T02:06:32.348Z,99.99
2023-01-10T02:07:32.372Z,99.99
2023-01-10T02:08:32.388Z,99.99
2023-01-10T02:09:32.427Z,99.99
2023-01-10T02:10:32.436Z,99.99
2023-01-10T02:11:32.453Z,99.99
2023-01-10T02:12:32.466Z,99.99
2023-01-10T02:13:32.486Z,99.99
2023-01-10T02:14:32.510Z,99.99
2023-01-10T02:15:32.528Z,99.99
2023-01-10T02:16:32.547Z,99.99
2023-01-10T02:17:32.564Z,99.99
2023-01-10T02:18:32.588Z,99.99
2023-01-10T02:19:32.607Z,99.99
2023-01-10T02:20:32.626Z,99.99
2023-01-10T02:21:32.645Z,99.99
2023-01-10T02:22:32.667Z,99.99
2023-01-10T02:23:32.696Z,99.99
2023-01-10T02:24:32.712Z,99.99
2023-01-10T02:25:32.732Z,99.99
2023-01-10T02:26:32.744Z,99.99
2023-01-10T02:27:32.770Z,99.99
2023-01-10T02:28:32.798Z,99.99
2023-01-10T02:29:32.806Z,99.99
2023-01-10T02:30:32.825Z,99.99
2023-01-10T02:31:32.865Z,99.99
2023-01-10T02:32:45.537Z,99.99
2023-01-10T02:33:32.887Z,99.99
2023-01-10T02:34:32.908Z,99.99
2023-01-10T02:35:32.929Z,99.99
2023-01-10T02:36:32.941Z,99.99
2023-01-10T02:37:32.970Z,99.99
2023-01-10T02:38:32.992Z,99.99
2023-01-10T02:39:33.001Z,99.99
2023-01-10T02:40:33.029Z,99.99
2023-01-10T02:41:33.043Z,99.99
2023-01-10T02:42:33.070Z,99.99
2023-01-10T02:43:33.083Z,99.99
2023-01-10T02:44:33.103Z,99.99
2023-01-10T02:45:33.121Z,99.99
2023-01-10T02:46:33.164Z,99.99
2023-01-10T02:47:33.163Z,99.99
2023-01-10T02:48:33.185Z,99.99
2023-01-10T02:49:33.202Z,99.99
2023-01-10T02:50:33.222Z,99.99
2023-01-10T02:51:33.243Z,99.99
2023-01-10T02:52:33.265Z,99.99
2023-01-10T02:53:33.292Z,99.99
2023-01-10T02:54:33.302Z,99.99
2023-01-10T02:55:33.324Z,99.99
2023-01-10T02:56:33.340Z,99.99
2023-01-10T02:57:33.363Z,99.99
2023-01-10T02:58:33.385Z,99.99
2023-01-10T02:59:33.405Z,99.99
2023-01-10T03:00:33.422Z,99.99
2023-01-10T03:01:33.481Z,99.99
2023-01-10T03:02:33.468Z,99.99
2023-01-10T03:03:33.500Z,99.99
2023-01-10T03:04:33.514Z,99.99
2023-01-10T03:05:33.526Z,99.99
2023-01-10T03:06:33.539Z,99.99
2023-01-10T03:07:33.561Z,99.99
2023-01-10T03:08:33.578Z,99.99
2023-01-10T03:09:34.469Z,99.99
2023-01-10T03:10:33.625Z,99.99
2023-01-10T03:11:33.640Z,99.99
2023-01-10T03:12:33.673Z,99.99
2023-01-10T03:13:33.687Z,99.99
2023-01-10T03:14:33.703Z,99.99
2023-01-10T03:15:33.722Z,99.99
2023-01-10T03:16:33.742Z,99.99
2023-01-10T03:17:33.760Z,99.99
2023-01-10T03:18:33.780Z,99.99
2023-01-10T03:19:33.805Z,99.99
2023-01-10T03:20:33.824Z,99.99
2023-01-10T03:21:33.837Z,99.99
2023-01-10T03:22:33.867Z,99.99
2023-01-10T03:23:33.881Z,99.99
2023-01-10T03:24:33.942Z,99.99
2023-01-10T03:25:33.918Z,99.99
2023-01-10T03:26:33.939Z,99.99
2023-01-10T03:27:33.963Z,99.99
2023-01-10T03:28:33.979Z,99.99
2023-01-10T03:29:34.027Z,99.99
2023-01-10T03:30:34.021Z,99.99
2023-01-10T03:31:34.084Z,99.99
2023-01-10T03:32:34.076Z,99.99
2023-01-10T03:33:34.082Z,99.99
2023-01-10T03:34:34.104Z,99.99
2023-01-10T03:35:34.121Z,99.99
2023-01-10T03:36:34.140Z,99.99
2023-01-10T03:37:34.160Z,99.99
2023-01-10T03:38:34.201Z,99.99
2023-01-10T03:39:34.202Z,99.99
2023-01-10T03:40:34.220Z,99.99
2023-01-10T03:41:34.242Z,99.99
2023-01-10T03:42:34.272Z,99.99
2023-01-10T03:43:34.279Z,99.99
2023-01-10T03:44:34.322Z,99.99
2023-01-10T03:45:34.325Z,99.99
2023-01-10T03:46:34.371Z,99.99
2023-01-10T03:47:34.361Z,99.99
2023-01-10T03:48:34.383Z,99.99
2023-01-10T03:49:34.403Z,99.99
2023-01-10T03:50:34.419Z,99.99
2023-01-10T03:51:34.442Z,99.99
2023-01-10T03:52:34.460Z,99.99
2023-01-10T03:53:34.486Z,99.99
2023-01-10T03:54:34.501Z,99.99
2023-01-10T03:55:34.522Z,99.99
2023-01-10T03:56:34.572Z,99.99
2023-01-10T03:57:34.564Z,99.99
2023-01-10T03:58:34.583Z,99.99
2023-01-10T03:59:34.604Z,99.99
2023-01-10T04:00:34.628Z,99.99
2023-01-10T04:01:34.708Z,99.99
2023-01-10T04:02:34.666Z,99.99
2023-01-10T04:03:34.686Z,99.99
2023-01-10T04:04:34.703Z,99.99
2023-01-10T04:05:34.723Z,99.99
2023-01-10T04:06:34.749Z,99.99
2023-01-10T04:07:34.776Z,99.99
2023-01-10T04:08:34.784Z,99.99
2023-01-10T04:09:34.810Z,99.99
2023-01-10T04:10:34.824Z,99.99
2023-01-10T04:11:34.849Z,99.99
2023-01-10T04:12:34.875Z,99.99
2023-01-10T04:13:34.886Z,99.99
2023-01-10T04:14:34.917Z,99.99
2023-01-10T04:15:34.934Z,99.99
2023-01-10T04:16:35.000Z,99.99
2023-01-10T04:17:34.964Z,99.99
2023-01-10T04:18:34.987Z,99.99
2023-01-10T04:19:35.003Z,99.99
2023-01-10T04:20:35.029Z,99.99
2023-01-10T04:21:35.044Z,99.99
2023-01-10T04:22:35.069Z,99.99
2023-01-10T04:23:35.089Z,99.99
2023-01-10T04:24:35.113Z,99.99
2023-01-10T04:25:35.130Z,99.99
2023-01-10T04:26:35.146Z,99.99
2023-01-10T04:27:35.165Z,99.99
2023-01-10T04:28:35.187Z,99.99
2023-01-10T04:29:35.212Z,99.99
2023-01-10T04:30:35.227Z,99.99
2023-01-10T04:31:35.253Z,99.99
2023-01-10T04:32:35.279Z,99.99
2023-01-10T04:33:35.293Z,99.99
2023-01-10T04:34:35.306Z,99.99
2023-01-10T04:35:35.324Z,99.99
2023-01-10T04:36:35.343Z,99.99
2023-01-10T04:37:35.364Z,99.99
2023-01-10T04:38:35.384Z,99.99
2023-01-10T04:39:35.408Z,99.99
2023-01-10T04:40:35.421Z,99.99
2023-01-10T04:41:35.449Z,99.99
2023-01-10T04:42:35.464Z,99.99
2023-01-10T04:43:35.495Z,99.99
2023-01-10T04:44:35.549Z,99.99
2023-01-10T04:45:35.669Z,99.99
2023-01-10T04:46:35.539Z,99.99
2023-01-10T04:47:35.564Z,99.99
2023-01-10T04:48:35.584Z,99.99
2023-01-10T04:49:35.602Z,99.99
2023-01-10T04:50:35.619Z,99.99
2023-01-10T04:51:35.647Z,99.99
2023-01-10T04:52:35.666Z,99.99
2023-01-10T04:53:35.712Z,99.99
2023-01-10T04:54:35.701Z,99.99
2023-01-10T04:55:35.729Z,99.99
2023-01-10T04:56:35.761Z,99.99
2023-01-10T04:57:35.769Z,99.99
2023-01-10T04:58:35.782Z,99.99
2023-01-10T04:59:35.806Z,99.99
2023-01-10T05:00:35.818Z,99.99
2023-01-10T05:01:35.842Z,99.99
2023-01-10T05:02:35.921Z,99.99
2023-01-10T05:03:35.890Z,99.99
2023-01-10T05:04:35.897Z,99.99
2023-01-10T05:05:35.929Z,99.99
2023-01-10T05:06:35.937Z,99.99
2023-01-10T05:07:35.958Z,99.99
2023-01-10T05:08:35.977Z,99.99
2023-01-10T05:09:36.003Z,99.99
2023-01-10T05:10:36.017Z,99.99
2023-01-10T05:11:36.045Z,99.99
2023-01-10T05:12:36.056Z,99.99
2023-01-10T05:13:36.081Z,99.99
2023-01-10T05:14:36.105Z,99.99
2023-01-10T05:15:36.145Z,99.99
2023-01-10T05:16:36.184Z,99.99
2023-01-10T05:17:36.152Z,99.99
2023-01-10T05:18:36.181Z,99.99
2023-01-10T05:19:36.193Z,99.99
2023-01-10T05:20:36.208Z,99.99
2023-01-10T05:21:36.266Z,99.99
2023-01-10T05:22:36.259Z,99.99
2023-01-10T05:23:36.277Z,99.99
2023-01-10T05:24:36.291Z,99.99
2023-01-10T05:25:36.314Z,99.99
2023-01-10T05:26:36.326Z,99.99
2023-01-10T05:27:36.356Z,99.99
2023-01-10T05:28:36.391Z,99.99
2023-01-10T05:29:36.392Z,99.99
2023-01-10T05:30:36.409Z,99.99
2023-01-10T05:31:36.469Z,99.99
2023-01-10T05:32:36.445Z,99.99
2023-01-10T05:33:36.464Z,99.99
2023-01-10T05:34:36.488Z,99.99
2023-01-10T05:35:36.515Z,99.99
2023-01-10T05:36:36.523Z,99.99
2023-01-10T05:37:38.026Z,99.99
2023-01-10T05:38:36.576Z,99.99
2023-01-10T05:39:36.581Z,99.99
2023-01-10T05:40:36.604Z,99.99
2023-01-10T05:41:36.625Z,99.99
2023-01-10T05:42:36.663Z,99.99
2023-01-10T05:43:36.663Z,99.99
2023-01-10T05:44:36.693Z,99.99
2023-01-10T05:45:36.726Z,99.99
2023-01-10T05:46:36.722Z,99.99
2023-01-10T05:47:36.744Z,99.99
2023-01-10T05:48:36.761Z,99.99
2023-01-10T05:49:36.782Z,99.99
2023-01-10T05:50:36.802Z,99.99
2023-01-10T05:51:36.837Z,99.99
2023-01-10T05:52:36.842Z,99.99
2023-01-10T05:53:36.865Z,99.99
2023-01-10T05:54:36.891Z,99.99
2023-01-10T05:55:36.898Z,99.99
2023-01-10T05:56:36.921Z,99.99
2023-01-10T05:57:36.936Z,99.99
2023-01-10T05:58:36.958Z,99.99
2023-01-10T05:59:36.984Z,99.99
2023-01-10T06:00:36.998Z,99.99
2023-01-10T06:01:37.020Z,99.99
2023-01-10T06:02:37.160Z,99.99
2023-01-10T06:03:37.058Z,99.99
2023-01-10T06:04:37.108Z,99.99
2023-01-10T06:05:37.099Z,99.99
2023-01-10T06:06:37.124Z,99.99
2023-01-10T06:07:37.140Z,99.99
2023-01-10T06:08:37.224Z,99.99
2023-01-10T06:09:37.176Z,99.99
2023-01-10T06:10:37.199Z,99.99
2023-01-10T06:11:37.222Z,99.99
2023-01-10T06:12:37.238Z,99.99
2023-01-10T06:13:37.259Z,99.99
2023-01-10T06:14:37.279Z,99.99
2023-01-10T06:15:37.356Z,99.99
2023-01-10T06:16:37.315Z,99.99
2023-01-10T06:17:37.340Z,99.99
2023-01-10T06:18:37.363Z,99.99
2023-01-10T06:19:37.379Z,99.99
2023-01-10T06:20:37.416Z,99.99
2023-01-10T06:21:37.419Z,99.99
2023-01-10T06:22:37.443Z,99.99
2023-01-10T06:23:37.503Z,99.99
2023-01-10T06:24:37.502Z,99.99
2023-01-10T06:25:37.508Z,99.99
2023-01-10T06:26:37.531Z,99.99
2023-01-10T06:27:37.554Z,99.99
2023-01-10T06:28:37.564Z,99.99
2023-01-10T06:29:37.577Z,99.99
2023-01-10T06:30:37.605Z,99.99
2023-01-10T06:31:37.637Z,99.99
2023-01-10T06:32:37.659Z,99.99
2023-01-10T06:33:37.658Z,99.99
2023-01-10T06:34:37.674Z,99.99
2023-01-10T06:35:37.703Z,99.99
2023-01-10T06:36:37.715Z,99.99
2023-01-10T06:37:37.736Z,99.99
2023-01-10T06:38:37.762Z,99.99
2023-01-10T06:39:37.776Z,99.99
2023-01-10T06:40:37.794Z,99.99
2023-01-10T06:41:37.816Z,99.99
2023-01-10T06:42:37.843Z,99.99
2023-01-10T06:43:37.854Z,99.99
2023-01-10T06:44:37.877Z,99.99
2023-01-10T06:45:38.007Z,99.99
2023-01-10T06:46:37.911Z,99.99
2023-01-10T06:47:37.951Z,99.99
2023-01-10T06:48:37.960Z,99.99
2023-01-10T06:49:37.971Z,99.99
2023-01-10T06:50:37.993Z,99.99
2023-01-10T06:51:38.037Z,99.99
2023-01-10T06:52:38.033Z,99.99
2023-01-10T06:53:38.052Z,99.99
2023-01-10T06:54:38.072Z,99.99
2023-01-10T06:55:38.099Z,99.99
2023-01-10T06:56:38.113Z,99.99
2023-01-10T06:57:38.140Z,99.99
2023-01-10T06:58:38.150Z,99.99
2023-01-10T06:59:38.173Z,99.99
2023-01-10T07:00:38.224Z,99.99
2023-01-10T07:01:38.323Z,99.99
2023-01-10T07:02:38.230Z,99.99
2023-01-10T07:03:38.329Z,99.99
2023-01-10T07:04:38.272Z,99.99
2023-01-10T07:05:38.293Z,99.99
2023-01-10T07:06:38.326Z,99.99
2023-01-10T07:07:38.334Z,99.99
2023-01-10T07:08:38.350Z,99.99
2023-01-10T07:09:38.372Z,99.99
2023-01-10T07:10:38.390Z,99.99
2023-01-10T07:11:38.416Z,99.99
2023-01-10T07:12:38.437Z,99.99
2023-01-10T07:13:38.451Z,99.99
2023-01-10T07:14:38.470Z,99.99
2023-01-10T07:15:38.498Z,99.99
2023-01-10T07:16:38.569Z,99.99
2023-01-10T07:17:38.528Z,99.99
2023-01-10T07:18:38.558Z,99.99
2023-01-10T07:19:38.587Z,99.99
2023-01-10T07:20:38.589Z,99.99
2023-01-10T07:21:38.608Z,99.99
2023-01-10T07:22:38.636Z,99.99
2023-01-10T07:23:38.654Z,99.99
2023-01-10T07:24:38.666Z,99.99
2023-01-10T07:25:38.690Z,99.99
2023-01-10T07:26:38.708Z,99.99
2023-01-10T07:27:38.729Z,99.99
2023-01-10T07:28:38.754Z,99.99
2023-01-10T07:29:38.790Z,99.99
2023-01-10T07:30:38.795Z,99.99
2023-01-10T07:31:38.829Z,99.99
2023-01-10T07:32:38.829Z,99.99
2023-01-10T07:33:38.853Z,99.99
2023-01-10T07:34:38.864Z,99.99
2023-01-10T07:35:38.897Z,99.99
2023-01-10T07:36:39.530Z,99.99
2023-01-10T07:37:38.930Z,99.99
2023-01-10T07:38:38.945Z,99.99
2023-01-10T07:39:38.970Z,99.99
2023-01-10T07:40:38.995Z,99.99
2023-01-10T07:41:39.017Z,99.99
2023-01-10T07:42:39.032Z,99.99
2023-01-10T07:43:39.055Z,99.99
2023-01-10T07:44:39.069Z,99.99
2023-01-10T07:45:39.092Z,99.99
2023-01-10T07:46:39.167Z,99.99
2023-01-10T07:47:39.137Z,99.99
2023-01-10T07:48:39.154Z,99.99
2023-01-10T07:49:39.164Z,99.99
2023-01-10T07:50:39.189Z,99.99
2023-01-10T07:51:39.207Z,99.99
2023-01-10T07:52:39.229Z,99.99
2023-01-10T07:53:39.244Z,99.99
2023-01-10T07:54:39.264Z,99.99
2023-01-10T07:55:39.295Z,99.99
2023-01-10T07:56:39.304Z,99.99
2023-01-10T07:57:39.327Z,99.99
2023-01-10T07:58:39.347Z,99.99
2023-01-10T07:59:39.366Z,99.99
2023-01-10T08:00:39.383Z,99.99
2023-01-10T08:01:39.406Z,99.99
2023-01-10T08:02:39.601Z,99.99
2023-01-10T08:03:39.580Z,99.99
2023-01-10T08:04:39.472Z,99.99
2023-01-10T08:05:39.486Z,99.99
2023-01-10T08:06:39.525Z,99.99
2023-01-10T08:07:39.525Z,99.99
2023-01-10T08:08:39.553Z,99.99
2023-01-10T08:09:39.578Z,99.99
2023-01-10T08:10:39.588Z,99.99
2023-01-10T08:11:41.518Z,99.99
2023-01-10T08:12:39.635Z,99.99
2023-01-10T08:13:39.649Z,99.99
2023-01-10T08:14:39.719Z,99.99
2023-01-10T08:15:39.724Z,99.99
2023-01-10T08:16:39.714Z,99.99
2023-01-10T08:17:39.738Z,99.99
2023-01-10T08:18:39.746Z,99.99
2023-01-10T08:19:39.770Z,99.99
2023-01-10T08:20:39.801Z,99.99
2023-01-10T08:21:39.807Z,99.99
2023-01-10T08:22:39.828Z,99.99
2023-01-10T08:23:39.848Z,99.99
2023-01-10T08:24:39.866Z,99.99
2023-01-10T08:25:39.883Z,99.99
2023-01-10T08:26:39.909Z,99.99
2023-01-10T08:27:39.928Z,99.99
2023-01-10T08:28:39.950Z,99.99
2023-01-10T08:29:39.974Z,99.99
2023-01-10T08:30:40.013Z,99.99
2023-01-10T08:31:40.003Z,99.99
2023-01-10T08:32:40.028Z,99.99
2023-01-10T08:33:40.044Z,99.99
2023-01-10T08:34:40.067Z,99.99
2023-01-10T08:35:40.089Z,99.99
2023-01-10T08:36:40.127Z,99.99
2023-01-10T08:37:40.123Z,99.99
2023-01-10T08:38:40.149Z,99.99
2023-01-10T08:39:40.170Z,99.99
2023-01-10T08:40:40.188Z,99.99
2023-01-10T08:41:40.204Z,99.99
2023-01-10T08:42:40.231Z,99.99
2023-01-10T08:43:40.246Z,99.99
2023-01-10T08:44:40.278Z,99.99
2023-01-10T08:45:40.284Z,99.99
2023-01-10T08:46:40.362Z,99.99
2023-01-10T08:47:40.332Z,99.99
2023-01-10T08:48:40.349Z,99.99
2023-01-10T08:49:40.366Z,99.99
2023-01-10T08:50:40.397Z,99.99
2023-01-10T08:51:40.414Z,99.99
2023-01-10T08:52:40.430Z,99.99
2023-01-10T08:53:40.459Z,99.99
2023-01-10T08:54:40.469Z,99.99
2023-01-10T08:55:47.637Z,99.99
2023-01-10T08:57:45.004Z,99.99
2023-01-10T08:58:44.505Z,99.99
2023-01-10T09:00:48.502Z,99.99
2023-01-10T09:01:48.569Z,99.99
2023-01-10T09:03:53.008Z,99.99
2023-01-10T09:04:52.535Z,99.99
2023-01-10T09:06:56.556Z,99.99
2023-01-10T09:07:56.556Z,99.99
2023-01-10T09:10:01.541Z,99.99
2023-01-10T09:11:00.595Z,99.99
2023-01-10T09:13:04.579Z,99.99
2023-01-10T09:14:04.590Z,99.99
2023-01-10T09:16:09.169Z,99.99
2023-01-10T09:17:08.604Z,99.99
2023-01-10T09:19:12.624Z,99.99
2023-01-10T09:20:12.627Z,99.99
2023-01-10T09:22:07.062Z,99.99
2023-01-10T09:23:05.615Z,99.99
2023-01-10T09:25:09.589Z,99.99
2023-01-10T09:26:09.599Z,99.99
2023-01-10T09:28:14.096Z,99.99
2023-01-10T09:29:13.611Z,99.99
2023-01-10T09:31:06.556Z,99.99
2023-01-10T09:32:06.551Z,99.99
2023-01-10T09:34:11.077Z,99.99
2023-01-10T09:35:10.761Z,99.99
2023-01-10T09:37:03.922Z,99.99
2023-01-10T09:38:03.912Z,99.99
2023-01-10T09:40:08.401Z,99.99
2023-01-10T09:41:07.932Z,99.99
2023-01-10T09:43:11.940Z,99.99
2023-01-10T09:44:11.955Z,99.99
2023-01-10T09:46:16.454Z,99.99
2023-01-10T09:47:22.450Z,99.99
2023-01-10T09:48:15.979Z,99.99
2023-01-10T09:49:15.999Z,99.99
2023-01-10T09:50:16.023Z,99.99
2023-01-10T09:51:16.048Z,99.99
2023-01-10T09:52:16.061Z,99.99
2023-01-10T09:53:16.082Z,99.99
2023-01-10T09:54:16.105Z,99.99
2023-01-10T09:55:16.147Z,99.99
2023-01-10T09:56:16.144Z,99.99
2023-01-10T09:57:16.169Z,99.99
2023-01-10T09:58:16.185Z,99.99
2023-01-10T09:59:16.207Z,99.99
2023-01-10T10:00:16.227Z,99.99
2023-01-10T10:01:16.295Z,99.99
2023-01-10T10:02:16.269Z,99.99
2023-01-10T10:03:16.305Z,99.99
2023-01-10T10:04:16.339Z,99.99
2023-01-10T10:05:16.332Z,99.99
2023-01-10T10:06:16.351Z,99.99
2023-01-10T10:07:16.377Z,99.99
2023-01-10T10:08:16.399Z,99.99
2023-01-10T10:09:16.417Z,99.99
2023-01-10T10:10:16.453Z,99.99
2023-01-10T10:11:16.469Z,99.99
2023-01-10T10:12:16.498Z,99.99
2023-01-10T10:13:26.417Z,99.99
2023-01-10T10:14:16.528Z,99.99
2023-01-10T10:15:16.550Z,99.99
2023-01-10T10:16:16.585Z,99.99
2023-01-10T10:17:16.586Z,99.99
2023-01-10T10:18:16.602Z,99.99
2023-01-10T10:19:16.626Z,99.99
2023-01-10T10:20:16.692Z,99.99
2023-01-10T10:21:16.665Z,99.99
2023-01-10T10:22:19.047Z,99.99
2023-01-10T10:23:16.714Z,99.99
2023-01-10T10:24:16.728Z,99.99
2023-01-10T10:25:16.751Z,99.99
2023-01-10T10:26:16.774Z,99.99
2023-01-10T10:27:16.793Z,99.99
2023-01-10T10:28:16.825Z,99.99
2023-01-10T10:29:16.859Z,99.99
2023-01-10T10:30:16.860Z,99.99
2023-01-10T10:31:16.902Z,99.99
2023-01-10T10:32:16.891Z,99.99
2023-01-10T10:33:16.912Z,99.99
2023-01-10T10:34:16.940Z,99.99
2023-01-10T10:35:16.964Z,99.99
2023-01-10T10:36:16.978Z,99.99
2023-01-10T10:37:17.000Z,99.99
2023-01-10T10:38:17.020Z,99.99
2023-01-10T10:39:17.041Z,99.99
2023-01-10T10:40:17.074Z,99.99
2023-01-10T10:41:17.085Z,99.99
2023-01-10T10:42:17.109Z,99.99
2023-01-10T10:43:17.128Z,99.99
2023-01-10T10:44:17.147Z,99.99
2023-01-10T10:45:17.186Z,99.99
2023-01-10T10:46:17.222Z,99.99
2023-01-10T10:47:17.215Z,99.99
2023-01-10T10:48:17.231Z,99.99
2023-01-10T10:49:18.713Z,99.99
2023-01-10T10:50:17.268Z,99.99
2023-01-10T10:51:17.299Z,99.99
2023-01-10T10:52:17.318Z,99.99
2023-01-10T10:53:17.340Z,99.99
2023-01-10T10:54:17.368Z,99.98
2023-01-10T10:55:17.381Z,99.99
2023-01-10T10:56:17.405Z,99.99
2023-01-10T10:57:17.429Z,99.99
2023-01-10T10:58:17.446Z,99.98
2023-01-10T10:59:17.469Z,99.88
2023-01-10T11:00:17.487Z,99.79
2023-01-10T11:01:17.633Z,99.69
2023-01-10T11:02:17.537Z,99.69
2023-01-10T11:03:17.560Z,99.69
2023-01-10T11:04:17.573Z,99.99
2023-01-10T11:05:17.595Z,99.88
2023-01-10T11:06:17.629Z,99.99
2023-01-10T11:07:17.640Z,99.99
2023-01-10T11:08:17.678Z,99.41
2023-01-10T11:09:17.695Z,99.98
2023-01-10T11:10:17.707Z,99.22
2023-01-10T11:11:17.721Z,99.17
2023-01-10T11:12:17.753Z,98.93
2023-01-10T11:13:17.768Z,99.55
2023-01-10T11:14:17.783Z,99.08
2023-01-10T11:15:17.815Z,99.17
2023-01-10T11:16:17.878Z,98.69
2023-01-10T11:17:17.853Z,99.17
2023-01-10T11:18:17.885Z,98.79
2023-01-10T11:19:17.935Z,98.60
2023-01-10T11:20:17.922Z,98.69
2023-01-10T11:21:19.653Z,97.93
2023-01-10T11:22:17.960Z,97.36
2023-01-10T11:23:17.977Z,97.36
2023-01-10T11:24:18.002Z,98.22
2023-01-10T11:25:18.031Z,97.74
2023-01-10T11:26:18.045Z,98.13
2023-01-10T11:27:18.077Z,98.03
2023-01-10T11:28:18.090Z,97.65
2023-01-10T11:29:18.120Z,97.93
2023-01-10T11:30:18.131Z,98.03
2023-01-10T11:31:18.175Z,97.17
2023-01-10T11:32:18.178Z,97.55
2023-01-10T11:33:18.196Z,97.17
2023-01-10T11:34:18.226Z,97.17
2023-01-10T11:35:18.240Z,97.36
2023-01-10T11:36:18.265Z,98.13
2023-01-10T11:37:18.286Z,97.84
2023-01-10T11:38:18.319Z,98.03
2023-01-10T11:39:18.333Z,97.55
2023-01-10T11:40:18.358Z,97.17
2023-01-10T11:41:18.370Z,96.70
2023-01-10T11:42:18.391Z,96.03
2023-01-10T11:43:18.413Z,96.41
2023-01-10T11:44:18.457Z,96.12
2023-01-10T11:45:18.479Z,96.31
2023-01-10T11:46:18.491Z,95.94
2023-01-10T11:47:18.502Z,96.51
2023-01-10T11:48:19.273Z,96.12
2023-01-10T11:49:18.545Z,96.60
2023-01-10T11:50:18.571Z,95.84
2023-01-10T11:51:18.589Z,95.94
2023-01-10T11:52:18.616Z,95.46
2023-01-10T11:53:18.642Z,95.46
2023-01-10T11:54:18.667Z,95.17
2023-01-10T11:55:18.677Z,94.98
2023-01-10T11:56:18.703Z,95.08
2023-01-10T11:57:18.717Z,95.46
2023-01-10T11:58:18.742Z,95.75
2023-01-10T11:59:18.777Z,95.84
2023-01-10T12:00:18.791Z,96.12
2023-01-10T12:01:18.832Z,95.84
2023-01-10T12:02:18.841Z,95.56
2023-01-10T12:03:18.852Z,95.08
2023-01-10T12:04:18.873Z,95.46
2023-01-10T12:05:19.030Z,95.94
2023-01-10T12:06:18.919Z,96.12
2023-01-10T12:07:18.939Z,96.03
2023-01-10T12:08:18.971Z,96.03
2023-01-10T12:09:18.981Z,95.08
2023-01-10T12:10:21.025Z,94.70
2023-01-10T12:11:19.028Z,94.70
2023-01-10T12:12:19.055Z,95.08
2023-01-10T12:13:19.070Z,94.98
2023-01-10T12:14:19.101Z,94.70
2023-01-10T12:15:19.112Z,94.70
2023-01-10T12:16:19.155Z,94.42
2023-01-10T12:17:19.154Z,94.51
2023-01-10T12:18:19.174Z,94.79
2023-01-10T12:19:19.208Z,94.79
2023-01-10T12:20:19.217Z,94.89
2023-01-10T12:21:19.244Z,94.22
2023-01-10T12:22:19.268Z,94.51
2023-01-10T12:23:19.293Z,94.89
2023-01-10T12:24:19.307Z,94.89
2023-01-10T12:25:19.328Z,94.79
2023-01-10T12:26:19.379Z,94.60
2023-01-10T12:27:19.373Z,94.32
2023-01-10T12:28:19.390Z,94.32
2023-01-10T12:29:19.416Z,94.22
2023-01-10T12:30:19.460Z,94.60
2023-01-10T12:31:19.464Z,94.89
2023-01-10T12:32:19.480Z,94.89
2023-01-10T12:33:19.503Z,94.98
2023-01-10T12:34:19.529Z,94.98
2023-01-10T12:35:19.548Z,95.36
2023-01-10T12:36:19.569Z,94.70
2023-01-10T12:37:19.587Z,94.51
2023-01-10T12:38:19.609Z,95.08
2023-01-10T12:39:19.636Z,94.89
2023-01-10T12:40:19.658Z,94.98
2023-01-10T12:41:19.675Z,94.51
2023-01-10T12:42:19.699Z,94.51
2023-01-10T12:43:19.716Z,94.70
2023-01-10T12:44:19.735Z,94.60
2023-01-10T12:45:19.766Z,94.89
2023-01-10T12:46:33.699Z,94.32
2023-01-10T12:47:19.865Z,94.13
2023-01-10T12:48:19.831Z,93.94
2023-01-10T12:49:19.868Z,93.84
2023-01-10T12:50:19.870Z,93.08
2023-01-10T12:51:19.895Z,93.84
2023-01-10T12:52:21.959Z,93.08
2023-01-10T12:53:19.934Z,92.70
2023-01-10T12:54:19.953Z,92.79
2023-01-10T12:55:19.977Z,92.79
2023-01-10T12:56:20.000Z,92.89
2023-01-10T12:57:20.037Z,92.79
2023-01-10T12:58:20.045Z,93.08
2023-01-10T12:59:36.079Z,93.18
2023-01-10T13:00:20.087Z,93.18
2023-01-10T13:01:20.189Z,92.89
2023-01-10T13:02:20.247Z,93.27
2023-01-10T13:03:20.160Z,93.08
2023-01-10T13:04:20.175Z,92.79
2023-01-10T13:05:20.203Z,92.99
2023-01-10T13:06:20.219Z,92.70
2023-01-10T13:07:20.240Z,93.18
2023-01-10T13:08:20.262Z,92.32
2023-01-10T13:09:20.291Z,93.18
2023-01-10T13:10:20.304Z,92.79